sensor_id;sensor_type;location;lat;lon;timestamp;P1;durP1;ratioP1;P2;durP2;ratioP2
51467;SDS011;37545;45.302;-122.946;2024-01-07T00:19:30;0.63;;;0.50;;
51467;SDS011;37545;45.302;-122.946;2024-01-07T00:22:09;1.63;;;0.90;;
51467;SDS011;37545;45.302;-122.946;2024-01-07T00:27:10;1.42;;;0.93;;
51467;SDS011;37545;45.302;-122.946;2024-01-07T00:29:43;1.77;;;1.10;;
51467;SDS011;37545;45.302;-122.946;2024-01-07T00:34:53;0.88;;;0.70;;
51467;SDS011;37545;45.302;-122.946;2024-01-07T00:37:22;1.63;;;0.80;;
51467;SDS011;37545;45.302;-122.946;2024-01-07T00:39:52;1.05;;;0.80;;
51467;SDS011;37545;45.302;-122.946;2024-01-07T00:42:22;1.35;;;0.95;;
51467;SDS011;37545;45.302;-122.946;2024-01-07T00:58:29;1.58;;;1.15;;
51467;SDS011;37545;45.302;-122.946;2024-01-07T01:01:00;2.50;;;1.13;;
51467;SDS011;37545;45.302;-122.946;2024-01-07T01:03:30;0.93;;;0.90;;
51467;SDS011;37545;45.302;-122.946;2024-01-07T01:21:50;4.88;;;1.08;;
51467;SDS011;37545;45.302;-122.946;2024-01-07T01:24:25;3.30;;;1.05;;
51467;SDS011;37545;45.302;-122.946;2024-01-07T01:26:54;0.70;;;0.45;;
51467;SDS011;37545;45.302;-122.946;2024-01-07T01:29:23;0.63;;;0.60;;
51467;SDS011;37545;45.302;-122.946;2024-01-07T01:37:11;1.02;;;0.50;;
51467;SDS011;37545;45.302;-122.946;2024-01-07T01:39:40;0.65;;;0.40;;
51467;SDS011;37545;45.302;-122.946;2024-01-07T01:42:15;0.68;;;0.55;;
51467;SDS011;37545;45.302;-122.946;2024-01-07T01:44:48;1.98;;;0.38;;
51467;SDS011;37545;45.302;-122.946;2024-01-07T02:03:09;0.55;;;0.22;;
51467;SDS011;37545;45.302;-122.946;2024-01-07T02:05:45;1.23;;;0.30;;
51467;SDS011;37545;45.302;-122.946;2024-01-07T02:08:18;1.50;;;0.22;;
51467;SDS011;37545;45.302;-122.946;2024-01-07T02:10:47;1.60;;;0.40;;
51467;SDS011;37545;45.302;-122.946;2024-01-07T03:35:02;3.85;;;1.20;;
51467;SDS011;37545;45.302;-122.946;2024-01-07T03:37:34;1.08;;;0.80;;
51467;SDS011;37545;45.302;-122.946;2024-01-07T03:42:51;0.98;;;0.63;;
51467;SDS011;37545;45.302;-122.946;2024-01-07T03:45:23;6.32;;;0.55;;
51467;SDS011;37545;45.302;-122.946;2024-01-07T03:47:54;2.47;;;0.73;;
51467;SDS011;37545;45.302;-122.946;2024-01-07T03:50:26;1.98;;;0.68;;
51467;SDS011;37545;45.302;-122.946;2024-01-07T03:52:58;2.40;;;0.90;;
51467;SDS011;37545;45.302;-122.946;2024-01-07T03:55:27;3.08;;;0.90;;
51467;SDS011;37545;45.302;-122.946;2024-01-07T03:58:04;0.90;;;0.60;;
51467;SDS011;37545;45.302;-122.946;2024-01-07T04:00:33;3.15;;;0.77;;
51467;SDS011;37545;45.302;-122.946;2024-01-07T04:03:07;2.38;;;0.88;;
51467;SDS011;37545;45.302;-122.946;2024-01-07T04:13:55;4.53;;;0.90;;
51467;SDS011;37545;45.302;-122.946;2024-01-07T04:16:25;1.88;;;0.73;;
51467;SDS011;37545;45.302;-122.946;2024-01-07T04:18:59;3.15;;;0.85;;
51467;SDS011;37545;45.302;-122.946;2024-01-07T04:21:30;2.25;;;1.00;;
51467;SDS011;37545;45.302;-122.946;2024-01-07T04:23:59;4.72;;;0.80;;
51467;SDS011;37545;45.302;-122.946;2024-01-07T04:26:28;2.03;;;0.90;;
51467;SDS011;37545;45.302;-122.946;2024-01-07T04:28:59;1.80;;;1.00;;
51467;SDS011;37545;45.302;-122.946;2024-01-07T04:31:38;4.07;;;1.63;;
51467;SDS011;37545;45.302;-122.946;2024-01-07T04:34:07;1.30;;;0.93;;
51467;SDS011;37545;45.302;-122.946;2024-01-07T04:36:38;2.80;;;1.17;;
51467;SDS011;37545;45.302;-122.946;2024-01-07T04:39:08;5.15;;;1.10;;
51467;SDS011;37545;45.302;-122.946;2024-01-07T04:41:40;1.30;;;0.90;;
51467;SDS011;37545;45.302;-122.946;2024-01-07T04:44:14;2.30;;;1.27;;
51467;SDS011;37545;45.302;-122.946;2024-01-07T04:46:43;2.92;;;1.15;;
51467;SDS011;37545;45.302;-122.946;2024-01-07T04:49:22;1.85;;;0.77;;
51467;SDS011;37545;45.302;-122.946;2024-01-07T04:54:27;1.95;;;1.30;;
51467;SDS011;37545;45.302;-122.946;2024-01-07T05:00:24;4.22;;;1.02;;
51467;SDS011;37545;45.302;-122.946;2024-01-07T05:02:56;1.25;;;0.60;;
51467;SDS011;37545;45.302;-122.946;2024-01-07T05:05:25;0.77;;;0.52;;
51467;SDS011;37545;45.302;-122.946;2024-01-07T05:08:00;3.83;;;0.70;;
51467;SDS011;37545;45.302;-122.946;2024-01-07T05:10:42;2.42;;;0.82;;
51467;SDS011;37545;45.302;-122.946;2024-01-07T05:13:11;1.60;;;0.70;;
51467;SDS011;37545;45.302;-122.946;2024-01-07T05:18:26;2.05;;;0.65;;
51467;SDS011;37545;45.302;-122.946;2024-01-07T05:20:55;1.35;;;1.13;;
51467;SDS011;37545;45.302;-122.946;2024-01-07T05:23:27;1.27;;;0.80;;
51467;SDS011;37545;45.302;-122.946;2024-01-07T05:26:05;0.75;;;0.57;;
51467;SDS011;37545;45.302;-122.946;2024-01-07T05:28:38;1.88;;;0.80;;
51467;SDS011;37545;45.302;-122.946;2024-01-07T05:31:15;0.88;;;0.57;;
51467;SDS011;37545;45.302;-122.946;2024-01-07T05:33:47;5.55;;;0.75;;
51467;SDS011;37545;45.302;-122.946;2024-01-07T05:36:16;3.45;;;0.70;;
51467;SDS011;37545;45.302;-122.946;2024-01-07T05:38:52;6.80;;;0.45;;
51467;SDS011;37545;45.302;-122.946;2024-01-07T05:41:22;3.67;;;0.95;;
51467;SDS011;37545;45.302;-122.946;2024-01-07T05:43:51;3.63;;;0.80;;
51467;SDS011;37545;45.302;-122.946;2024-01-07T05:46:22;4.88;;;0.90;;
51467;SDS011;37545;45.302;-122.946;2024-01-07T05:48:54;6.03;;;0.68;;
51467;SDS011;37545;45.302;-122.946;2024-01-07T05:51:23;0.82;;;0.43;;
51467;SDS011;37545;45.302;-122.946;2024-01-07T05:53:53;3.90;;;0.88;;
51467;SDS011;37545;45.302;-122.946;2024-01-07T05:56:22;1.60;;;0.70;;
51467;SDS011;37545;45.302;-122.946;2024-01-07T05:58:58;4.07;;;0.75;;
51467;SDS011;37545;45.302;-122.946;2024-01-07T06:01:29;1.10;;;0.90;;
51467;SDS011;37545;45.302;-122.946;2024-01-07T06:03:59;2.13;;;0.60;;
51467;SDS011;37545;45.302;-122.946;2024-01-07T06:06:31;4.43;;;0.68;;
51467;SDS011;37545;45.302;-122.946;2024-01-07T06:09:03;1.08;;;0.73;;
51467;SDS011;37545;45.302;-122.946;2024-01-07T06:11:32;0.70;;;0.45;;
51467;SDS011;37545;45.302;-122.946;2024-01-07T06:14:01;4.00;;;0.90;;
51467;SDS011;37545;45.302;-122.946;2024-01-07T06:16:34;1.48;;;0.70;;
51467;SDS011;37545;45.302;-122.946;2024-01-07T06:19:06;0.70;;;0.43;;
51467;SDS011;37545;45.302;-122.946;2024-01-07T06:21:35;3.60;;;0.65;;
51467;SDS011;37545;45.302;-122.946;2024-01-07T06:24:05;3.85;;;0.55;;
51467;SDS011;37545;45.302;-122.946;2024-01-07T06:26:42;0.52;;;0.50;;
51467;SDS011;37545;45.302;-122.946;2024-01-07T06:29:12;5.28;;;0.80;;
51467;SDS011;37545;45.302;-122.946;2024-01-07T06:31:48;1.05;;;0.50;;
51467;SDS011;37545;45.302;-122.946;2024-01-07T06:34:34;2.90;;;1.13;;
51467;SDS011;37545;45.302;-122.946;2024-01-07T06:37:03;2.08;;;0.57;;
51467;SDS011;37545;45.302;-122.946;2024-01-07T06:39:43;0.77;;;0.55;;
51467;SDS011;37545;45.302;-122.946;2024-01-07T06:42:12;1.42;;;0.90;;
51467;SDS011;37545;45.302;-122.946;2024-01-07T06:44:41;6.90;;;1.02;;
51467;SDS011;37545;45.302;-122.946;2024-01-07T06:47:12;4.70;;;1.00;;
51467;SDS011;37545;45.302;-122.946;2024-01-07T06:49:44;2.40;;;0.60;;
51467;SDS011;37545;45.302;-122.946;2024-01-07T06:52:13;1.40;;;0.73;;
51467;SDS011;37545;45.302;-122.946;2024-01-07T06:54:42;1.50;;;0.40;;
51467;SDS011;37545;45.302;-122.946;2024-01-07T06:57:11;4.20;;;0.80;;
51467;SDS011;37545;45.302;-122.946;2024-01-07T06:59:54;2.50;;;0.60;;
51467;SDS011;37545;45.302;-122.946;2024-01-07T07:02:26;0.77;;;0.45;;
51467;SDS011;37545;45.302;-122.946;2024-01-07T07:04:55;0.50;;;0.47;;
51467;SDS011;37545;45.302;-122.946;2024-01-07T07:07:41;2.55;;;0.47;;
51467;SDS011;37545;45.302;-122.946;2024-01-07T07:10:11;4.43;;;0.93;;
51467;SDS011;37545;45.302;-122.946;2024-01-07T07:12:40;2.28;;;0.80;;
51467;SDS011;37545;45.302;-122.946;2024-01-07T07:15:16;0.80;;;0.40;;
51467;SDS011;37545;45.302;-122.946;2024-01-07T07:17:47;1.88;;;0.32;;
51467;SDS011;37545;45.302;-122.946;2024-01-07T07:20:19;2.15;;;0.32;;
51467;SDS011;37545;45.302;-122.946;2024-01-07T07:22:55;1.92;;;0.80;;
51467;SDS011;37545;45.302;-122.946;2024-01-07T07:25:24;1.90;;;0.50;;
51467;SDS011;37545;45.302;-122.946;2024-01-07T07:27:53;0.98;;;0.50;;
51467;SDS011;37545;45.302;-122.946;2024-01-07T07:30:35;0.55;;;0.45;;
51467;SDS011;37545;45.302;-122.946;2024-01-07T07:33:05;0.82;;;0.40;;
51467;SDS011;37545;45.302;-122.946;2024-01-07T07:35:34;0.60;;;0.32;;
51467;SDS011;37545;45.302;-122.946;2024-01-07T07:38:06;1.75;;;0.50;;
51467;SDS011;37545;45.302;-122.946;2024-01-07T07:40:36;0.95;;;0.30;;
51467;SDS011;37545;45.302;-122.946;2024-01-07T07:43:05;0.75;;;0.47;;
51467;SDS011;37545;45.302;-122.946;2024-01-07T07:45:34;1.83;;;0.45;;
51467;SDS011;37545;45.302;-122.946;2024-01-07T07:48:07;4.63;;;0.73;;
51467;SDS011;37545;45.302;-122.946;2024-01-07T07:50:39;2.63;;;1.15;;
51467;SDS011;37545;45.302;-122.946;2024-01-07T07:53:08;1.95;;;0.47;;
51467;SDS011;37545;45.302;-122.946;2024-01-07T07:55:36;2.55;;;0.50;;
51467;SDS011;37545;45.302;-122.946;2024-01-07T07:58:14;4.38;;;0.80;;
51467;SDS011;37545;45.302;-122.946;2024-01-07T08:00:43;2.10;;;0.60;;
51467;SDS011;37545;45.302;-122.946;2024-01-07T08:03:14;2.28;;;0.52;;
51467;SDS011;37545;45.302;-122.946;2024-01-07T08:05:43;1.55;;;0.73;;
51467;SDS011;37545;45.302;-122.946;2024-01-07T08:08:25;0.70;;;0.50;;
51467;SDS011;37545;45.302;-122.946;2024-01-07T08:10:54;1.75;;;0.38;;
51467;SDS011;37545;45.302;-122.946;2024-01-07T08:13:23;1.13;;;0.28;;
51467;SDS011;37545;45.302;-122.946;2024-01-07T08:16:05;2.40;;;0.60;;
51467;SDS011;37545;45.302;-122.946;2024-01-07T08:18:38;0.43;;;0.30;;
51467;SDS011;37545;45.302;-122.946;2024-01-07T08:21:07;0.80;;;0.47;;
51467;SDS011;37545;45.302;-122.946;2024-01-07T08:23:39;2.00;;;0.45;;
51467;SDS011;37545;45.302;-122.946;2024-01-07T08:26:08;1.13;;;0.55;;
51467;SDS011;37545;45.302;-122.946;2024-01-07T08:28:38;2.75;;;0.77;;
51467;SDS011;37545;45.302;-122.946;2024-01-07T08:31:07;2.70;;;0.68;;
51467;SDS011;37545;45.302;-122.946;2024-01-07T08:33:38;2.92;;;0.38;;
51467;SDS011;37545;45.302;-122.946;2024-01-07T08:36:07;1.23;;;0.60;;
51467;SDS011;37545;45.302;-122.946;2024-01-07T08:38:38;2.00;;;0.65;;
51467;SDS011;37545;45.302;-122.946;2024-01-07T08:41:07;0.70;;;0.32;;
51467;SDS011;37545;45.302;-122.946;2024-01-07T08:46:20;3.63;;;0.73;;
51467;SDS011;37545;45.302;-122.946;2024-01-07T08:48:52;0.88;;;0.38;;
51467;SDS011;37545;45.302;-122.946;2024-01-07T08:51:20;2.87;;;0.67;;
51467;SDS011;37545;45.302;-122.946;2024-01-07T08:53:50;2.33;;;0.68;;
51467;SDS011;37545;45.302;-122.946;2024-01-07T08:56:19;2.47;;;0.40;;
51467;SDS011;37545;45.302;-122.946;2024-01-07T08:58:49;1.95;;;0.40;;
51467;SDS011;37545;45.302;-122.946;2024-01-07T09:01:18;0.82;;;0.22;;
51467;SDS011;37545;45.302;-122.946;2024-01-07T09:03:48;1.48;;;0.45;;
51467;SDS011;37545;45.302;-122.946;2024-01-07T09:06:18;0.20;;;0.20;;
51467;SDS011;37545;45.302;-122.946;2024-01-07T09:08:47;0.88;;;0.22;;
51467;SDS011;37545;45.302;-122.946;2024-01-07T09:11:18;3.63;;;0.77;;
51467;SDS011;37545;45.302;-122.946;2024-01-07T09:13:52;1.92;;;0.40;;
51467;SDS011;37545;45.302;-122.946;2024-01-07T09:16:21;0.75;;;0.25;;
51467;SDS011;37545;45.302;-122.946;2024-01-07T09:18:51;1.30;;;0.40;;
51467;SDS011;37545;45.302;-122.946;2024-01-07T09:21:28;0.93;;;0.47;;
51467;SDS011;37545;45.302;-122.946;2024-01-07T09:23:57;0.80;;;0.38;;
51467;SDS011;37545;45.302;-122.946;2024-01-07T09:26:26;7.72;;;1.15;;
51467;SDS011;37545;45.302;-122.946;2024-01-07T09:28:56;4.63;;;0.52;;
51467;SDS011;37545;45.302;-122.946;2024-01-07T09:31:27;2.03;;;0.45;;
51467;SDS011;37545;45.302;-122.946;2024-01-07T09:33:58;2.08;;;0.95;;
51467;SDS011;37545;45.302;-122.946;2024-01-07T09:36:29;2.83;;;0.70;;
51467;SDS011;37545;45.302;-122.946;2024-01-07T09:38:58;3.33;;;0.80;;
51467;SDS011;37545;45.302;-122.946;2024-01-07T09:41:33;0.70;;;0.40;;
51467;SDS011;37545;45.302;-122.946;2024-01-07T09:44:02;1.03;;;0.57;;
51467;SDS011;37545;45.302;-122.946;2024-01-07T09:46:34;1.48;;;0.90;;
51467;SDS011;37545;45.302;-122.946;2024-01-07T09:49:06;2.50;;;0.50;;
51467;SDS011;37545;45.302;-122.946;2024-01-07T09:51:37;3.47;;;0.73;;
51467;SDS011;37545;45.302;-122.946;2024-01-07T09:54:08;0.55;;;0.30;;
51467;SDS011;37545;45.302;-122.946;2024-01-07T09:56:42;2.17;;;0.70;;
51467;SDS011;37545;45.302;-122.946;2024-01-07T09:59:18;2.13;;;0.98;;
51467;SDS011;37545;45.302;-122.946;2024-01-07T10:01:47;1.65;;;0.35;;
51467;SDS011;37545;45.302;-122.946;2024-01-07T10:04:20;1.48;;;0.57;;
51467;SDS011;37545;45.302;-122.946;2024-01-07T10:06:49;2.13;;;0.68;;
51467;SDS011;37545;45.302;-122.946;2024-01-07T10:09:20;6.13;;;1.00;;
51467;SDS011;37545;45.302;-122.946;2024-01-07T10:11:52;2.95;;;0.50;;
51467;SDS011;37545;45.302;-122.946;2024-01-07T10:14:20;1.48;;;1.20;;
51467;SDS011;37545;45.302;-122.946;2024-01-07T10:16:50;5.15;;;0.57;;
51467;SDS011;37545;45.302;-122.946;2024-01-07T10:19:29;2.35;;;0.75;;
51467;SDS011;37545;45.302;-122.946;2024-01-07T10:22:01;2.70;;;0.88;;
51467;SDS011;37545;45.302;-122.946;2024-01-07T10:24:37;1.08;;;0.43;;
51467;SDS011;37545;45.302;-122.946;2024-01-07T10:27:07;1.20;;;0.43;;
51467;SDS011;37545;45.302;-122.946;2024-01-07T10:29:36;1.00;;;0.65;;
51467;SDS011;37545;45.302;-122.946;2024-01-07T10:32:05;2.22;;;0.70;;
51467;SDS011;37545;45.302;-122.946;2024-01-07T10:34:46;4.60;;;1.05;;
51467;SDS011;37545;45.302;-122.946;2024-01-07T10:37:17;2.45;;;0.65;;
51467;SDS011;37545;45.302;-122.946;2024-01-07T10:39:46;0.93;;;0.43;;
51467;SDS011;37545;45.302;-122.946;2024-01-07T10:42:28;6.25;;;1.20;;
51467;SDS011;37545;45.302;-122.946;2024-01-07T10:44:59;2.33;;;1.20;;
51467;SDS011;37545;45.302;-122.946;2024-01-07T10:47:29;2.58;;;1.15;;
51467;SDS011;37545;45.302;-122.946;2024-01-07T10:50:02;2.90;;;1.55;;
51467;SDS011;37545;45.302;-122.946;2024-01-07T10:52:31;2.97;;;1.10;;
51467;SDS011;37545;45.302;-122.946;2024-01-07T10:55:08;4.05;;;0.88;;
51467;SDS011;37545;45.302;-122.946;2024-01-07T10:57:42;2.78;;;1.55;;
51467;SDS011;37545;45.302;-122.946;2024-01-07T11:00:13;6.22;;;1.85;;
51467;SDS011;37545;45.302;-122.946;2024-01-07T11:02:49;5.73;;;2.33;;
51467;SDS011;37545;45.302;-122.946;2024-01-07T11:05:30;7.63;;;1.63;;
51467;SDS011;37545;45.302;-122.946;2024-01-07T11:08:11;5.10;;;1.73;;
51467;SDS011;37545;45.302;-122.946;2024-01-07T11:10:48;4.85;;;1.70;;
51467;SDS011;37545;45.302;-122.946;2024-01-07T11:13:34;6.43;;;2.28;;
51467;SDS011;37545;45.302;-122.946;2024-01-07T11:16:07;2.83;;;1.30;;
51467;SDS011;37545;45.302;-122.946;2024-01-07T11:18:38;3.15;;;1.70;;
51467;SDS011;37545;45.302;-122.946;2024-01-07T11:21:12;4.22;;;1.20;;
51467;SDS011;37545;45.302;-122.946;2024-01-07T11:23:50;4.63;;;1.20;;
51467;SDS011;37545;45.302;-122.946;2024-01-07T11:26:20;4.78;;;1.95;;
51467;SDS011;37545;45.302;-122.946;2024-01-07T11:28:52;4.00;;;1.27;;
51467;SDS011;37545;45.302;-122.946;2024-01-07T11:31:44;8.00;;;1.75;;
51467;SDS011;37545;45.302;-122.946;2024-01-07T11:34:40;3.80;;;1.83;;
51467;SDS011;37545;45.302;-122.946;2024-01-07T11:37:17;8.38;;;1.52;;
51467;SDS011;37545;45.302;-122.946;2024-01-07T11:39:47;10.05;;;1.90;;
51467;SDS011;37545;45.302;-122.946;2024-01-07T11:42:16;5.53;;;1.42;;
51467;SDS011;37545;45.302;-122.946;2024-01-07T11:44:46;6.00;;;1.25;;
51467;SDS011;37545;45.302;-122.946;2024-01-07T11:47:23;6.40;;;1.70;;
51467;SDS011;37545;45.302;-122.946;2024-01-07T11:49:53;6.65;;;1.75;;
51467;SDS011;37545;45.302;-122.946;2024-01-07T11:52:24;8.25;;;1.35;;
51467;SDS011;37545;45.302;-122.946;2024-01-07T11:54:57;6.03;;;1.45;;
51467;SDS011;37545;45.302;-122.946;2024-01-07T11:57:26;3.67;;;1.27;;
51467;SDS011;37545;45.302;-122.946;2024-01-07T11:59:55;5.28;;;1.48;;
51467;SDS011;37545;45.302;-122.946;2024-01-07T12:02:24;3.85;;;0.80;;
51467;SDS011;37545;45.302;-122.946;2024-01-07T12:04:56;2.47;;;1.33;;
51467;SDS011;37545;45.302;-122.946;2024-01-07T12:07:34;3.78;;;1.00;;
51467;SDS011;37545;45.302;-122.946;2024-01-07T12:10:07;3.53;;;1.30;;
51467;SDS011;37545;45.302;-122.946;2024-01-07T12:12:44;2.58;;;1.20;;
51467;SDS011;37545;45.302;-122.946;2024-01-07T12:18:16;4.82;;;1.25;;
51467;SDS011;37545;45.302;-122.946;2024-01-07T12:21:19;1.45;;;0.90;;
51467;SDS011;37545;45.302;-122.946;2024-01-07T12:24:02;3.08;;;0.82;;
51467;SDS011;37545;45.302;-122.946;2024-01-07T12:26:32;1.67;;;1.00;;
51467;SDS011;37545;45.302;-122.946;2024-01-07T12:29:02;1.50;;;0.98;;
51467;SDS011;37545;45.302;-122.946;2024-01-07T12:31:44;3.65;;;0.85;;
51467;SDS011;37545;45.302;-122.946;2024-01-07T12:34:12;2.13;;;0.82;;
51467;SDS011;37545;45.302;-122.946;2024-01-07T12:36:47;1.38;;;0.80;;
51467;SDS011;37545;45.302;-122.946;2024-01-07T12:39:30;2.83;;;0.98;;
51467;SDS011;37545;45.302;-122.946;2024-01-07T12:41:59;3.20;;;1.08;;
51467;SDS011;37545;45.302;-122.946;2024-01-07T12:44:29;7.18;;;1.52;;
51467;SDS011;37545;45.302;-122.946;2024-01-07T12:47:02;3.47;;;1.13;;
51467;SDS011;37545;45.302;-122.946;2024-01-07T12:49:31;2.85;;;1.30;;
51467;SDS011;37545;45.302;-122.946;2024-01-07T12:52:00;2.33;;;1.10;;
51467;SDS011;37545;45.302;-122.946;2024-01-07T12:54:42;2.65;;;0.90;;
51467;SDS011;37545;45.302;-122.946;2024-01-07T12:57:11;3.03;;;1.13;;
51467;SDS011;37545;45.302;-122.946;2024-01-07T12:59:40;2.30;;;1.30;;
51467;SDS011;37545;45.302;-122.946;2024-01-07T13:02:09;2.00;;;0.60;;
51467;SDS011;37545;45.302;-122.946;2024-01-07T13:04:38;1.95;;;1.10;;
51467;SDS011;37545;45.302;-122.946;2024-01-07T13:07:07;1.38;;;0.75;;
51467;SDS011;37545;45.302;-122.946;2024-01-07T13:09:38;1.98;;;0.70;;
51467;SDS011;37545;45.302;-122.946;2024-01-07T13:12:07;6.28;;;1.40;;
51467;SDS011;37545;45.302;-122.946;2024-01-07T13:14:44;2.90;;;1.15;;
51467;SDS011;37545;45.302;-122.946;2024-01-07T13:17:14;3.22;;;1.20;;
51467;SDS011;37545;45.302;-122.946;2024-01-07T13:19:43;6.88;;;1.10;;
51467;SDS011;37545;45.302;-122.946;2024-01-07T13:22:13;6.45;;;1.80;;
51467;SDS011;37545;45.302;-122.946;2024-01-07T13:24:49;3.55;;;1.27;;
51467;SDS011;37545;45.302;-122.946;2024-01-07T13:27:20;2.80;;;0.63;;
51467;SDS011;37545;45.302;-122.946;2024-01-07T13:29:49;1.67;;;0.80;;
51467;SDS011;37545;45.302;-122.946;2024-01-07T13:32:24;3.40;;;1.00;;
51467;SDS011;37545;45.302;-122.946;2024-01-07T13:34:53;4.93;;;1.20;;
51467;SDS011;37545;45.302;-122.946;2024-01-07T13:37:22;3.75;;;1.45;;
51467;SDS011;37545;45.302;-122.946;2024-01-07T13:39:57;3.88;;;1.40;;
51467;SDS011;37545;45.302;-122.946;2024-01-07T13:42:29;5.43;;;1.75;;
51467;SDS011;37545;45.302;-122.946;2024-01-07T13:44:59;4.07;;;1.25;;
51467;SDS011;37545;45.302;-122.946;2024-01-07T13:47:28;2.40;;;1.23;;
51467;SDS011;37545;45.302;-122.946;2024-01-07T13:49:57;6.43;;;1.75;;
51467;SDS011;37545;45.302;-122.946;2024-01-07T13:52:28;2.28;;;1.17;;
51467;SDS011;37545;45.302;-122.946;2024-01-07T13:54:59;2.35;;;1.33;;
51467;SDS011;37545;45.302;-122.946;2024-01-07T13:57:29;2.33;;;1.02;;
51467;SDS011;37545;45.302;-122.946;2024-01-07T13:59:58;1.73;;;1.20;;
51467;SDS011;37545;45.302;-122.946;2024-01-07T14:02:35;1.77;;;1.10;;
51467;SDS011;37545;45.302;-122.946;2024-01-07T14:05:06;1.80;;;0.90;;
51467;SDS011;37545;45.302;-122.946;2024-01-07T14:07:37;2.65;;;0.98;;
51467;SDS011;37545;45.302;-122.946;2024-01-07T14:10:12;1.15;;;0.60;;
51467;SDS011;37545;45.302;-122.946;2024-01-07T14:12:41;2.17;;;0.90;;
51467;SDS011;37545;45.302;-122.946;2024-01-07T14:15:10;2.22;;;0.90;;
51467;SDS011;37545;45.302;-122.946;2024-01-07T14:17:39;3.95;;;0.65;;
51467;SDS011;37545;45.302;-122.946;2024-01-07T14:20:10;4.47;;;1.20;;
51467;SDS011;37545;45.302;-122.946;2024-01-07T14:22:39;2.13;;;1.08;;
51467;SDS011;37545;45.302;-122.946;2024-01-07T14:25:10;4.03;;;1.20;;
51467;SDS011;37545;45.302;-122.946;2024-01-07T14:27:41;1.08;;;0.63;;
51467;SDS011;37545;45.302;-122.946;2024-01-07T14:30:23;1.50;;;0.60;;
51467;SDS011;37545;45.302;-122.946;2024-01-07T14:32:53;0.90;;;0.52;;
51467;SDS011;37545;45.302;-122.946;2024-01-07T14:35:22;1.85;;;0.70;;
51467;SDS011;37545;45.302;-122.946;2024-01-07T14:38:00;1.33;;;0.90;;
51467;SDS011;37545;45.302;-122.946;2024-01-07T14:40:31;1.73;;;0.88;;
51467;SDS011;37545;45.302;-122.946;2024-01-07T14:43:00;6.00;;;1.20;;
51467;SDS011;37545;45.302;-122.946;2024-01-07T14:45:37;2.05;;;0.70;;
51467;SDS011;37545;45.302;-122.946;2024-01-07T14:48:06;3.83;;;0.63;;
51467;SDS011;37545;45.302;-122.946;2024-01-07T14:50:35;5.15;;;0.88;;
51467;SDS011;37545;45.302;-122.946;2024-01-07T14:53:05;1.88;;;0.70;;
51467;SDS011;37545;45.302;-122.946;2024-01-07T14:55:46;1.75;;;0.90;;
51467;SDS011;37545;45.302;-122.946;2024-01-07T14:58:15;3.33;;;0.63;;
51467;SDS011;37545;45.302;-122.946;2024-01-07T15:00:46;2.00;;;1.15;;
51467;SDS011;37545;45.302;-122.946;2024-01-07T15:03:18;3.53;;;0.63;;
51467;SDS011;37545;45.302;-122.946;2024-01-07T15:05:47;0.70;;;0.47;;
51467;SDS011;37545;45.302;-122.946;2024-01-07T15:08:16;1.65;;;0.55;;
51467;SDS011;37545;45.302;-122.946;2024-01-07T15:10:47;1.20;;;0.70;;
51467;SDS011;37545;45.302;-122.946;2024-01-07T15:13:27;4.43;;;0.95;;
51467;SDS011;37545;45.302;-122.946;2024-01-07T15:15:57;1.75;;;0.70;;
51467;SDS011;37545;45.302;-122.946;2024-01-07T15:18:26;3.75;;;0.70;;
51467;SDS011;37545;45.302;-122.946;2024-01-07T15:20:58;4.63;;;0.93;;
51467;SDS011;37545;45.302;-122.946;2024-01-07T15:23:28;2.33;;;0.80;;
51467;SDS011;37545;45.302;-122.946;2024-01-07T15:25:59;5.50;;;0.70;;
51467;SDS011;37545;45.302;-122.946;2024-01-07T15:28:28;6.10;;;0.93;;
51467;SDS011;37545;45.302;-122.946;2024-01-07T15:31:08;3.58;;;0.90;;
51467;SDS011;37545;45.302;-122.946;2024-01-07T15:33:37;3.08;;;0.60;;
51467;SDS011;37545;45.302;-122.946;2024-01-07T15:36:06;3.05;;;0.70;;
51467;SDS011;37545;45.302;-122.946;2024-01-07T15:38:37;1.55;;;0.57;;
51467;SDS011;37545;45.302;-122.946;2024-01-07T15:41:09;1.77;;;0.98;;
51467;SDS011;37545;45.302;-122.946;2024-01-07T15:43:39;3.78;;;0.93;;
51467;SDS011;37545;45.302;-122.946;2024-01-07T15:46:09;1.70;;;0.50;;
51467;SDS011;37545;45.302;-122.946;2024-01-07T15:48:40;2.20;;;0.90;;
51467;SDS011;37545;45.302;-122.946;2024-01-07T15:51:12;3.80;;;1.23;;
51467;SDS011;37545;45.302;-122.946;2024-01-07T15:53:41;4.43;;;1.17;;
51467;SDS011;37545;45.302;-122.946;2024-01-07T15:56:12;2.95;;;1.20;;
51467;SDS011;37545;45.302;-122.946;2024-01-07T15:58:45;3.13;;;1.35;;
51467;SDS011;37545;45.302;-122.946;2024-01-07T16:01:16;8.05;;;2.20;;
51467;SDS011;37545;45.302;-122.946;2024-01-07T16:03:45;5.90;;;2.03;;
51467;SDS011;37545;45.302;-122.946;2024-01-07T16:06:14;4.45;;;1.52;;
51467;SDS011;37545;45.302;-122.946;2024-01-07T16:08:43;4.78;;;1.95;;
51467;SDS011;37545;45.302;-122.946;2024-01-07T16:11:16;7.63;;;1.90;;
51467;SDS011;37545;45.302;-122.946;2024-01-07T16:13:45;7.18;;;1.70;;
51467;SDS011;37545;45.302;-122.946;2024-01-07T16:16:16;2.90;;;1.70;;
51467;SDS011;37545;45.302;-122.946;2024-01-07T16:18:45;2.60;;;1.30;;
51467;SDS011;37545;45.302;-122.946;2024-01-07T16:21:14;1.10;;;0.98;;
51467;SDS011;37545;45.302;-122.946;2024-01-07T16:23:46;2.38;;;0.95;;
51467;SDS011;37545;45.302;-122.946;2024-01-07T16:26:18;3.70;;;0.90;;
51467;SDS011;37545;45.302;-122.946;2024-01-07T16:28:54;0.98;;;0.70;;
51467;SDS011;37545;45.302;-122.946;2024-01-07T16:31:23;2.50;;;0.90;;
51467;SDS011;37545;45.302;-122.946;2024-01-07T16:33:53;3.15;;;0.88;;
51467;SDS011;37545;45.302;-122.946;2024-01-07T16:36:22;3.17;;;1.13;;
51467;SDS011;37545;45.302;-122.946;2024-01-07T16:38:54;1.92;;;1.13;;
51467;SDS011;37545;45.302;-122.946;2024-01-07T16:41:26;3.28;;;1.00;;
51467;SDS011;37545;45.302;-122.946;2024-01-07T16:43:55;1.70;;;0.95;;
51467;SDS011;37545;45.302;-122.946;2024-01-07T16:46:24;6.57;;;1.38;;
51467;SDS011;37545;45.302;-122.946;2024-01-07T16:49:06;5.55;;;1.08;;
51467;SDS011;37545;45.302;-122.946;2024-01-07T16:51:36;1.50;;;0.68;;
51467;SDS011;37545;45.302;-122.946;2024-01-07T16:54:05;2.28;;;0.80;;
51467;SDS011;37545;45.302;-122.946;2024-01-07T16:56:37;2.03;;;1.00;;
51467;SDS011;37545;45.302;-122.946;2024-01-07T16:59:05;3.67;;;1.20;;
51467;SDS011;37545;45.302;-122.946;2024-01-07T17:01:36;5.30;;;1.25;;
51467;SDS011;37545;45.302;-122.946;2024-01-07T17:04:05;2.60;;;0.47;;
51467;SDS011;37545;45.302;-122.946;2024-01-07T17:06:34;2.63;;;1.08;;
51467;SDS011;37545;45.302;-122.946;2024-01-07T17:09:03;1.73;;;0.70;;
51467;SDS011;37545;45.302;-122.946;2024-01-07T17:11:32;5.38;;;0.93;;
51467;SDS011;37545;45.302;-122.946;2024-01-07T17:14:04;2.08;;;1.15;;
51467;SDS011;37545;45.302;-122.946;2024-01-07T17:16:34;2.35;;;0.75;;
51467;SDS011;37545;45.302;-122.946;2024-01-07T17:19:10;3.05;;;1.00;;
51467;SDS011;37545;45.302;-122.946;2024-01-07T17:21:40;1.25;;;0.50;;
51467;SDS011;37545;45.302;-122.946;2024-01-07T17:26:50;2.42;;;1.00;;
51467;SDS011;37545;45.302;-122.946;2024-01-07T17:29:19;3.50;;;0.93;;
51467;SDS011;37545;45.302;-122.946;2024-01-07T17:31:50;2.05;;;0.85;;
51467;SDS011;37545;45.302;-122.946;2024-01-07T17:34:28;5.93;;;0.82;;
51467;SDS011;37545;45.302;-122.946;2024-01-07T17:36:59;1.95;;;0.95;;
51467;SDS011;37545;45.302;-122.946;2024-01-07T17:39:29;2.95;;;0.80;;